Time;durP1;ratioP1;P1;durP2;ratioP2;P2;SDS_P1;SDS_P2;PMS_P1;PMS_P2;Temp;Humidity;BMP_temperature;BMP_pressure;BME280_temperature;BME280_humidity;BME280_pressure;Samples;Min_cycle;Max_cycle;Signal;HPM_P1;HPM_P2
2022/04/19 00:01:40;;;;;;;9.73;6.05;;;;;;;9.29;48.94;99455.22;4377262;32;33505;-78
2022/04/19 00:04:11;;;;;;;9.70;6.50;;;;;;;9.47;48.38;99454.66;4377450;32;33989;-78
2022/04/19 00:06:39;;;;;;;9.85;6.78;;;;;;;9.39;48.45;99447.47;4353045;32;33862;-79
2022/04/19 00:09:06;;;;;;;11.20;6.95;;;;;;;9.20;48.87;99442.78;4352993;32;34404;-78
2022/04/19 00:11:35;;;;;;;12.85;6.50;;;;;;;9.25;48.71;99438.38;4376733;32;32353;-78
2022/04/19 00:14:02;;;;;;;10.15;6.12;;;;;;;8.94;49.27;99439.97;4365151;32;34032;-78
2022/04/19 00:16:30;;;;;;;9.90;6.70;;;;;;;9.11;48.92;99433.06;4365013;32;33654;-78
2022/04/19 00:19:01;;;;;;;10.43;6.85;;;;;;;9.14;48.97;99441.69;4378564;32;34360;-78
2022/04/19 00:21:28;;;;;;;12.10;7.18;;;;;;;9.30;48.80;99434.16;4352620;32;32990;-78
2022/04/19 00:23:56;;;;;;;10.80;6.35;;;;;;;9.27;48.93;99431.84;4352159;32;33344;-79
2022/04/19 00:26:26;;;;;;;11.85;6.93;;;;;;;9.18;49.09;99428.44;4377265;32;33763;-78
2022/04/19 00:28:56;;;;;;;9.70;6.28;;;;;;;9.18;49.05;99429.28;4364942;32;33524;-78
2022/04/19 00:31:24;;;;;;;9.77;6.50;;;;;;;9.15;49.07;99432.44;4376979;32;33910;-78
2022/04/19 00:33:52;;;;;;;10.48;6.68;;;;;;;9.17;49.02;99427.59;4352916;32;33288;-78
2022/04/19 00:36:24;;;;;;;12.68;7.28;;;;;;;8.82;49.71;99429.59;4364767;32;33957;-78
2022/04/19 00:38:52;;;;;;;10.43;6.87;;;;;;;8.70;49.97;99428.50;4377107;32;33094;-78
2022/04/19 00:41:19;;;;;;;12.00;6.90;;;;;;;8.82;49.76;99418.66;4364942;32;34864;-78
2022/04/19 00:43:51;;;;;;;11.65;6.95;;;;;;;8.99;49.51;99418.31;4377242;32;33365;-78
2022/04/19 00:46:19;;;;;;;13.50;7.40;;;;;;;8.93;49.87;99414.50;4365172;32;33888;-79
2022/04/19 00:48:47;;;;;;;14.02;7.03;;;;;;;8.95;49.70;99406.06;4365245;32;35295;-79
2022/04/19 00:51:17;;;;;;;11.50;6.50;;;;;;;8.91;49.95;99405.66;4352599;32;34002;-78
2022/04/19 00:53:47;;;;;;;11.90;7.28;;;;;;;8.82;50.22;99401.41;4352717;32;32027;-78
2022/04/19 00:56:18;;;;;;;12.70;7.28;;;;;;;8.82;50.45;99399.50;4364929;32;34516;-78
2022/04/19 00:58:45;;;;;;;12.30;6.60;;;;;;;8.95;49.99;99401.44;4352675;32;35318;-78
2022/04/19 01:01:13;;;;;;;15.30;7.43;;;;;;;8.97;49.93;99393.88;4377136;32;34661;-79
2022/04/19 01:03:42;;;;;;;19.52;12.00;;;;;;;8.95;49.96;99397.88;4389047;32;33789;-78
2022/04/19 01:06:10;;;;;;;72.25;29.67;;;;;;;8.92;49.95;99393.66;4377173;32;34553;-78
2022/04/19 01:08:44;;;;;;;76.53;33.60;;;;;;;8.89;50.03;99397.63;4376989;32;35173;-78
2022/04/19 01:14:02;;;;;;;15.93;8.02;;;;;;;8.78;50.22;99392.75;4389132;32;32340;-78
2022/04/19 01:16:30;;;;;;;25.45;16.08;;;;;;;8.88;50.04;99390.47;4389398;32;33767;-79
2022/04/19 01:18:59;;;;;;;19.20;12.05;;;;;;;8.76;50.41;99389.38;4376888;32;34308;-78
2022/04/19 01:21:48;;;;;;;11.95;7.47;;;;;;;8.91;50.17;99392.81;4378059;32;33902;-78
2022/04/19 01:24:22;;;;;;;10.90;7.05;;;;;;;8.70;50.69;99386.63;4377217;32;33249;-78
2022/04/19 01:26:58;;;;;;;10.68;6.65;;;;;;;8.75;50.64;99389.59;4376691;32;33525;-78
2022/04/19 01:29:26;;;;;;;;;;;;;;;8.71;50.78;99385.56;4377300;32;35115;-78
2022/04/19 01:31:56;;;;;;;11.48;7.00;;;;;;;8.69;50.87;99383.03;4376796;32;35041;-78
2022/04/19 01:34:26;;;;;;;13.05;7.20;;;;;;;8.69;50.94;99371.25;4377915;32;34077;-78
2022/04/19 01:36:59;;;;;;;10.88;7.40;;;;;;;8.81;50.64;99381.41;4364665;32;33797;-78
2022/04/19 01:42:16;;;;;;;;;;;;;;;8.83;50.58;99368.34;4378983;32;33498;-78
2022/04/19 01:44:44;;;;;;;10.02;5.55;;;;;;;8.80;50.91;99374.25;4365437;32;31686;-78
2022/04/19 01:47:13;;;;;;;11.05;6.12;;;;;;;8.88;50.71;99368.59;4378461;32;33959;-78
2022/04/19 01:49:41;;;;;;;11.07;5.93;;;;;;;8.80;50.94;99371.50;4390859;32;33624;-78
2022/04/19 01:52:09;;;;;;;10.90;5.57;;;;;;;8.82;51.07;99368.56;4390839;32;33840;-78
2022/04/19 01:54:39;;;;;;;9.00;5.78;;;;;;;8.79;51.17;99355.28;4365799;32;31841;-79
2022/04/19 01:57:10;;;;;;;11.63;6.72;;;;;;;8.89;50.90;99353.84;4390751;32;33742;-78
2022/04/19 01:59:44;;;;;;;9.15;5.93;;;;;;;8.94;50.91;99360.59;4378233;32;33678;-78
2022/04/19 02:02:15;;;;;;;10.35;5.75;;;;;;;8.92;50.88;99358.06;4378217;32;33865;-78
2022/04/19 02:04:43;;;;;;;10.75;6.95;;;;;;;8.88;51.00;99359.53;4378305;32;33357;-78
2022/04/19 02:07:11;;;;;;;11.45;6.90;;;;;;;8.91;50.82;99357.22;4365869;32;33687;-78
2022/04/19 02:09:48;;;;;;;11.18;6.53;;;;;;;8.88;50.65;99352.16;4378547;32;34399;-78
2022/04/19 02:12:16;;;;;;;12.35;6.68;;;;;;;8.85;50.77;99349.84;4364961;32;32533;-78
2022/04/19 02:14:45;;;;;;;11.05;6.07;;;;;;;8.77;50.97;99349.19;4366187;32;32792;-78
2022/04/19 02:17:18;;;;;;;9.73;5.85;;;;;;;8.79;50.79;99345.19;4390297;32;33129;-78
2022/04/19 02:19:47;;;;;;;11.68;5.97;;;;;;;8.74;51.00;99336.75;4390494;32;33982;-78
2022/04/19 02:22:15;;;;;;;13.38;6.25;;;;;;;8.73;51.08;99347.91;4390695;32;33409;-78
2022/04/19 02:24:44;;;;;;;11.70;6.43;;;;;;;8.65;51.30;99338.00;4379265;32;33419;-78
2022/04/19 02:27:13;;;;;;;10.18;6.28;;;;;;;8.74;51.23;99344.97;4390405;32;33954;-78
2022/04/19 02:29:42;;;;;;;10.13;5.72;;;;;;;8.80;50.88;99330.47;4366018;32;34587;-78
2022/04/19 02:32:12;;;;;;;11.02;6.32;;;;;;;8.86;50.87;99343.31;4378334;32;33907;-78
2022/04/19 02:34:40;;;;;;;10.88;5.95;;;;;;;8.62;51.52;99332.94;4365746;32;32937;-78
2022/04/19 02:37:11;;;;;;;13.35;5.65;;;;;;;8.44;52.04;99338.97;4379396;32;34390;-78
2022/04/19 02:39:38;;;;;;;11.07;5.87;;;;;;;8.53;51.89;99343.19;4377962;32;32971;-78
2022/04/19 02:42:08;;;;;;;10.60;6.10;;;;;;;8.41;52.14;99333.94;4378021;32;33802;-78
2022/04/19 02:44:40;;;;;;;10.32;6.30;;;;;;;8.21;52.60;99341.16;4390353;32;34019;-78
2022/04/19 02:47:11;;;;;;;10.35;5.97;;;;;;;8.13;52.87;99335.84;4390469;32;33815;-78
2022/04/19 02:49:46;;;;;;;11.20;6.95;;;;;;;8.14;52.94;99332.06;4365864;32;34001;-78
2022/04/19 02:52:22;;;;;;;11.35;7.07;;;;;;;8.05;53.19;99328.66;4378069;32;34647;-78
2022/04/19 02:54:53;;;;;;;;;;;;;;;8.13;52.83;99331.22;4379645;32;34193;-79
2022/04/19 02:57:26;;;;;;;10.85;6.60;;;;;;;8.19;52.75;99338.63;4377856;32;33914;-78
2022/04/19 02:59:54;;;;;;;9.85;6.20;;;;;;;8.35;52.05;99337.47;4390511;32;33097;-78
2022/04/19 03:02:24;;;;;;;9.63;6.10;;;;;;;8.42;51.69;99338.34;4377758;32;34006;-78
2022/04/19 03:04:52;;;;;;;9.65;6.35;;;;;;;8.41;51.84;99341.28;4365569;32;32696;-76
2022/04/19 03:07:23;;;;;;;10.88;7.18;;;;;;;8.31;52.12;99355.28;4366113;32;34318;-82
2022/04/19 03:09:50;;;;;;;10.48;6.75;;;;;;;8.39;51.80;99354.31;4365755;32;34029;-81
2022/04/19 03:12:18;;;;;;;12.55;6.90;;;;;;;8.29;51.97;99353.81;4365640;32;33940;-81
2022/04/19 03:14:47;;;;;;;10.77;6.37;;;;;;;8.21;52.21;99352.94;4365962;32;33242;-81
2022/04/19 03:17:21;;;;;;;10.65;6.68;;;;;;;8.20;52.18;99351.25;4365659;32;33728;-81
2022/04/19 03:19:49;;;;;;;10.07;5.80;;;;;;;8.27;52.14;99354.00;4390172;32;34040;-81
2022/04/19 03:22:19;;;;;;;10.07;6.00;;;;;;;8.21;52.14;99352.94;4365392;32;32697;-82
2022/04/19 03:27:43;;;;;;;11.88;6.82;;;;;;;8.04;52.38;99348.81;4377656;32;32384;-80
2022/04/19 03:30:14;;;;;;;10.70;6.75;;;;;;;8.05;52.33;99341.47;4389524;32;34463;-82
2022/04/19 03:32:42;;;;;;;14.50;6.80;;;;;;;8.09;52.14;99343.59;4390158;32;32424;-76
2022/04/19 03:35:11;;;;;;;10.00;6.50;;;;;;;8.03;52.18;99344.41;4378778;32;34172;-76
2022/04/19 03:37:39;;;;;;;10.52;6.62;;;;;;;7.81;52.68;99342.78;4389970;32;32417;-76
2022/04/19 03:40:11;;;;;;;12.00;7.62;;;;;;;8.00;52.09;99341.22;4390113;32;33085;-76
2022/04/19 03:42:42;;;;;;;12.27;6.70;;;;;;;8.02;51.96;99342.72;4389886;32;32564;-76
2022/04/19 03:45:10;;;;;;;12.88;7.07;;;;;;;8.05;51.87;99338.75;4377778;32;33886;-76
2022/04/19 03:47:38;;;;;;;15.13;8.65;;;;;;;7.95;52.07;99339.09;4389955;32;33750;-76
2022/04/19 03:50:09;;;;;;;15.15;8.68;;;;;;;7.89;52.12;99334.44;4377440;32;35205;-76
2022/04/19 03:52:37;;;;;;;14.57;9.80;;;;;;;7.87;52.27;99329.16;4365268;32;32530;-76
2022/04/19 03:55:06;;;;;;;12.70;7.57;;;;;;;7.93;52.14;99335.72;4378993;32;33500;-76
2022/04/19 03:57:34;;;;;;;11.77;7.30;;;;;;;7.90;52.25;99330.66;4365118;32;33676;-76
2022/04/19 04:00:04;;;;;;;11.70;6.95;;;;;;;7.88;52.37;99330.00;4378765;32;34341;-76
2022/04/19 04:02:34;;;;;;;10.85;6.68;;;;;;;7.94;52.27;99337.41;4377745;32;34021;-76
2022/04/19 04:05:04;;;;;;;11.05;6.43;;;;;;;7.92;52.16;99334.03;4389899;32;31853;-76
2022/04/19 04:07:38;;;;;;;10.57;6.40;;;;;;;7.79;52.41;99334.81;4389222;32;34262;-74
2022/04/19 04:10:07;;;;;;;11.70;6.55;;;;;;;7.96;56.45;99329.84;4377693;32;35485;-76
2022/04/19 04:12:35;;;;;;;11.98;6.40;;;;;;;7.98;54.16;99330.50;4365451;32;33860;-76
2022/04/19 04:15:03;;;;;;;10.68;6.70;;;;;;;8.08;52.95;99333.72;4378482;32;34046;-76
2022/04/19 04:17:31;;;;;;;11.18;7.25;;;;;;;8.07;52.57;99333.91;4377086;32;33455;-76
2022/04/19 04:20:02;;;;;;;14.80;8.20;;;;;;;8.08;52.22;99333.72;4389526;32;33011;-76
2022/04/19 04:22:29;;;;;;;14.48;8.43;;;;;;;8.05;52.07;99328.66;4389086;32;33827;-76
2022/04/19 04:24:57;;;;;;;14.65;7.93;;;;;;;8.00;52.34;99335.75;4389509;32;33414;-76
2022/04/19 04:27:25;;;;;;;15.30;8.30;;;;;;;8.03;52.31;99338.09;4377190;32;32354;-76
2022/04/19 04:29:57;;;;;;;12.43;7.80;;;;;;;7.93;52.61;99338.47;4389759;32;34574;-75
2022/04/19 04:32:26;;;;;;;15.35;9.05;;;;;;;8.00;52.58;99341.22;4378274;32;33936;-75
2022/04/19 04:34:53;;;;;;;13.77;8.15;;;;;;;7.95;52.70;99341.84;4389609;32;33207;-71
2022/04/19 04:37:22;;;;;;;12.52;7.18;;;;;;;7.93;52.79;99339.28;4378632;32;33702;-75
2022/04/19 04:39:51;;;;;;;10.60;7.07;;;;;;;8.18;57.81;99338.81;4378097;32;34430;-75
2022/04/19 04:42:21;;;;;;;13.48;7.20;;;;;;;8.14;54.34;99343.84;4377009;32;36439;-75
2022/04/19 04:44:48;;;;;;;18.42;7.35;;;;;;;8.10;53.16;99341.72;4389829;32;33264;-75
2022/04/19 04:50:05;;;;;;;8.98;5.60;;;;;;;8.00;52.79;99339.34;4389682;32;33672;-75
2022/04/19 04:52:33;;;;;;;10.30;6.18;;;;;;;8.06;52.60;99341.28;4389269;32;34458;-75
2022/04/19 04:55:03;;;;;;;11.90;7.05;;;;;;;8.09;52.55;99343.59;4389609;32;33308;-75
2022/04/19 04:57:31;;;;;;;13.45;8.07;;;;;;;8.01;52.79;99346.50;4376919;32;33654;-75
2022/04/19 04:59:59;;;;;;;18.50;9.00;;;;;;;8.11;52.65;99346.97;4378279;32;34510;-75
2022/04/19 05:02:26;;;;;;;16.25;9.20;;;;;;;7.97;53.10;99350.66;4376876;32;33592;-75
2022/04/19 05:04:54;;;;;;;13.88;8.90;;;;;;;7.96;53.41;99348.97;4364756;32;31979;-75
2022/04/19 05:07:22;;;;;;;14.87;9.18;;;;;;;7.99;53.29;99348.59;4378456;32;34543;-75
2022/04/19 05:09:58;;;;;;;18.00;9.15;;;;;;;8.01;53.55;99343.75;4377359;32;34601;-75
2022/04/19 05:12:26;;;;;;;13.45;8.25;;;;;;;7.86;54.25;99345.75;4378301;32;34032;-75
2022/04/19 05:14:57;;;;;;;15.27;8.50;;;;;;;7.99;53.94;99345.84;4389317;32;34123;-75
2022/04/19 05:17:29;;;;;;;13.32;8.43;;;;;;;8.05;53.58;99341.47;4378379;32;33715;-76
2022/04/19 05:20:01;;;;;;;13.65;8.60;;;;;;;7.90;53.75;99345.16;4377005;32;34364;-75
2022/04/19 05:22:31;;;;;;;18.30;9.55;;;;;;;8.07;53.41;99342.97;4389418;32;33928;-74
2022/04/19 05:25:02;;;;;;;16.17;8.85;;;;;;;8.20;53.16;99347.66;4376793;32;33279;-73
2022/04/19 05:27:30;;;;;;;14.95;8.98;;;;;;;8.12;53.58;99350.56;4389511;32;33645;-74
2022/04/19 05:29:58;;;;;;;15.05;8.82;;;;;;;8.20;53.65;99347.66;4377808;32;35179;-74
2022/04/19 05:32:27;;;;;;;16.83;9.20;;;;;;;8.38;53.19;99350.75;4389143;32;33025;-74
2022/04/19 05:34:58;;;;;;;14.98;9.32;;;;;;;8.20;53.63;99353.97;4377998;32;33416;-74
2022/04/19 05:37:26;;;;;;;16.00;8.15;;;;;;;8.31;53.05;99354.44;4377762;32;33743;-74
2022/04/19 05:39:53;;;;;;;14.45;8.90;;;;;;;8.41;52.94;99342.12;4376736;32;34134;-74
2022/04/19 05:42:25;;;;;;;13.90;8.77;;;;;;;8.49;53.11;99346.53;4377837;32;33664;-74
2022/04/19 05:44:53;;;;;;;15.68;8.77;;;;;;;8.51;53.46;99352.66;4388562;32;32024;-74
2022/04/19 05:47:20;;;;;;;15.65;8.45;;;;;;;8.83;52.93;99353.84;4389276;32;34467;-74
2022/04/19 05:49:51;;;;;;;17.37;9.82;;;;;;;8.96;52.48;99342.09;4376564;32;34507;-74
2022/04/19 05:52:24;;;;;;;13.73;8.73;;;;;;;9.17;52.13;99347.38;4376654;32;34533;-74
2022/04/19 05:54:58;;;;;;;19.50;9.55;;;;;;;9.40;51.13;99349.72;4389248;32;33602;-74
2022/04/19 05:57:29;;;;;;;16.10;9.60;;;;;;;9.61;50.46;99348.66;4385542;32;32248;-74
2022/04/19 05:59:56;;;;;;;15.57;9.27;;;;;;;9.90;49.80;99340.81;4390257;32;33511;-74
2022/04/19 06:05:10;;;;;;;16.73;8.90;;;;;;;10.12;50.09;99344.16;4391146;32;32360;-74
2022/04/19 06:07:43;;;;;;;15.63;9.27;;;;;;;10.33;49.62;99336.75;4353996;32;32663;-74
2022/04/19 06:10:11;;;;;;;14.05;8.77;;;;;;;10.36;49.45;99333.56;4377721;32;34287;-75
2022/04/19 06:12:43;;;;;;;13.35;8.48;;;;;;;10.43;49.95;99339.84;4378629;32;33829;-75
2022/04/19 06:15:11;;;;;;;11.32;5.90;;;;;;;10.74;48.43;99342.69;4366174;32;31856;-75
2022/04/19 06:17:40;;;;;;;12.37;7.55;;;;;;;10.99;45.68;99340.03;4392218;32;34457;-74
2022/04/19 06:20:10;;;;;;;12.20;6.03;;;;;;;11.08;46.90;99348.81;4392059;32;34403;-74
2022/04/19 06:22:38;;;;;;;21.55;9.77;;;;;;;11.47;45.27;99336.72;4378375;32;34121;-75
2022/04/19 06:25:06;;;;;;;12.90;6.72;;;;;;;11.44;43.95;99337.16;4366403;32;33676;-75
2022/04/19 06:27:34;;;;;;;9.38;5.47;;;;;;;11.47;45.42;99336.72;4392063;32;33456;-75
2022/04/19 06:30:05;;;;;;;11.10;5.40;;;;;;;11.85;43.58;99322.87;4354594;32;32886;-75
2022/04/19 06:32:32;;;;;;;10.68;6.40;;;;;;;12.09;43.36;99322.00;4394086;32;33583;-75
2022/04/19 06:35:02;;;;;;;9.48;5.22;;;;;;;12.37;42.22;99328.84;4381064;32;33448;-74
2022/04/19 06:37:30;;;;;;;11.85;6.90;;;;;;;12.73;40.56;99319.75;4393789;32;33943;-74
2022/04/19 06:40:08;;;;;;;10.55;5.32;;;;;;;13.02;39.86;99324.41;4381298;32;34393;-75
2022/04/19 06:42:36;;;;;;;8.77;5.50;;;;;;;13.23;39.02;99331.34;4381077;32;33956;-74
2022/04/19 06:45:07;;;;;;;8.32;5.55;;;;;;;13.58;38.21;99322.31;4368619;32;34816;-74
2022/04/19 06:47:37;;;;;;;11.95;5.32;;;;;;;13.72;38.41;99329.25;4380987;32;33978;-75
2022/04/19 06:50:05;;;;;;;10.23;6.22;;;;;;;13.75;37.61;99328.78;4380618;32;34358;-75
2022/04/19 06:52:34;;;;;;;9.70;5.18;;;;;;;13.66;37.36;99321.94;4367919;32;32231;-74
2022/04/19 06:55:03;;;;;;;10.45;5.65;;;;;;;13.82;37.94;99326.75;4379147;32;33299;-75
2022/04/19 06:57:38;;;;;;;8.65;5.53;;;;;;;13.85;38.26;99318.84;4380608;32;33629;-75
2022/04/19 07:00:06;;;;;;;13.38;5.72;;;;;;;13.38;38.10;99323.47;4394042;32;34257;-74
2022/04/19 07:02:34;;;;;;;12.40;7.00;;;;;;;13.35;38.91;99325.84;4385346;32;33974;-75
2022/04/19 07:05:03;;;;;;;11.23;6.22;;;;;;;13.55;38.18;99318.13;4392953;32;33943;-75
2022/04/19 07:07:32;;;;;;;11.88;6.43;;;;;;;14.14;37.19;99314.28;4368096;32;33656;-75
2022/04/19 07:09:59;;;;;;;12.15;6.47;;;;;;;14.10;36.53;99309.47;4393017;32;34546;-75
2022/04/19 07:12:28;;;;;;;9.80;6.07;;;;;;;14.27;36.77;99317.88;4380319;32;34046;-74
2022/04/19 07:14:56;;;;;;;12.32;5.90;;;;;;;14.26;36.31;99317.03;4367911;32;32197;-75
2022/04/19 07:17:25;;;;;;;10.82;6.32;;;;;;;14.18;36.43;99309.13;4380143;32;33529;-75
2022/04/19 07:28:17;;;;;;;;;;;;;;;15.06;34.30;99310.66;4382134;32;32389;-74
2022/04/19 07:30:48;;;;;;;7.82;4.87;;;;;;;15.00;33.49;99303.38;4392607;32;34634;-74
2022/04/19 07:33:27;;;;;;;9.25;5.10;;;;;;;15.34;33.11;99301.50;4380277;32;33423;-74
2022/04/19 07:36:08;;;;;;;9.25;5.07;;;;;;;15.19;33.73;99304.00;4381058;32;31982;-74
2022/04/19 07:38:38;;;;;;;8.82;4.95;;;;;;;15.05;33.46;99296.00;4392559;32;33498;-74
2022/04/19 07:41:09;;;;;;;13.95;6.40;;;;;;;15.51;32.94;99301.53;4392468;32;34231;-75
2022/04/19 07:43:46;;;;;;;9.43;5.30;;;;;;;15.77;32.85;99303.62;4392632;32;34361;-74
2022/04/19 07:46:17;;;;;;;8.52;5.03;;;;;;;15.79;33.25;99304.22;4380667;32;34127;-74
2022/04/19 07:48:51;;;;;;;10.70;5.62;;;;;;;15.44;32.42;99307.22;4392646;32;33778;-75
2022/04/19 07:51:28;;;;;;;9.98;5.55;;;;;;;15.60;32.43;99308.37;4392832;32;34320;-74
2022/04/19 07:54:03;;;;;;;8.23;4.80;;;;;;;15.74;32.38;99304.97;4392126;32;34385;-74
2022/04/19 07:56:36;;;;;;;8.48;5.00;;;;;;;15.61;31.95;99310.00;4380056;32;31658;-74
2022/04/19 07:59:04;;;;;;;6.90;4.32;;;;;;;16.01;32.42;99301.53;4380036;32;33785;-74
2022/04/19 08:01:32;;;;;;;9.85;4.90;;;;;;;15.65;31.76;99300.13;4392953;32;34749;-74
2022/04/19 08:04:05;;;;;;;8.75;5.05;;;;;;;15.75;31.81;99301.13;4380327;32;33712;-74
2022/04/19 08:06:38;;;;;;;9.23;4.55;;;;;;;15.83;31.77;99297.09;4379337;32;33117;-75
2022/04/19 08:09:19;;;;;;;6.62;4.45;;;;;;;16.08;32.13;99308.56;4380717;32;33836;-75
2022/04/19 08:11:51;;;;;;;6.43;3.78;;;;;;;16.11;30.99;99305.28;4393358;32;34454;-74
2022/04/19 08:14:25;;;;;;;7.43;4.18;;;;;;;16.30;31.12;99307.75;4380533;32;34134;-75
2022/04/19 08:16:59;;;;;;;7.35;4.90;;;;;;;16.39;31.43;99309.81;4380186;32;33151;-74
2022/04/19 08:19:30;;;;;;;9.70;4.03;;;;;;;16.14;30.60;99310.31;4379801;32;34737;-74
2022/04/19 08:22:03;;;;;;;10.68;4.35;;;;;;;16.32;30.11;99300.03;4394026;32;35189;-75
2022/04/19 08:24:37;;;;;;;7.87;4.50;;;;;;;16.32;31.52;99309.16;4367448;32;33419;-74
2022/04/19 08:27:10;;;;;;;8.45;4.85;;;;;;;16.23;30.56;99302.41;4367592;32;31992;-75
2022/04/19 08:29:43;;;;;;;6.00;3.90;;;;;;;15.99;30.73;99309.25;4367516;32;32200;-72
2022/04/19 08:32:16;;;;;;;6.75;3.62;;;;;;;16.36;34.27;99301.19;4393707;32;35168;-71
2022/04/19 08:34:45;;;;;;;8.52;4.53;;;;;;;16.84;34.53;99302.38;4367669;32;34078;-71
2022/04/19 08:37:13;;;;;;;19.05;12.45;;;;;;;17.11;33.24;99301.28;4379857;32;33595;-72
2022/04/19 08:39:44;;;;;;;8.27;5.00;;;;;;;17.17;30.21;99296.62;4391805;32;32151;-72
2022/04/19 08:42:15;;;;;;;9.02;5.00;;;;;;;17.37;30.34;99294.06;4393486;32;35360;-73
2022/04/19 08:44:45;;;;;;;8.02;4.75;;;;;;;17.31;31.48;99285.97;4367507;32;33863;-74
2022/04/19 08:47:16;;;;;;;8.20;4.78;;;;;;;17.05;28.81;99288.47;4380038;32;34182;-75
2022/04/19 08:49:44;;;;;;;6.57;3.80;;;;;;;16.95;29.03;99293.91;4380042;32;33597;-75
2022/04/19 08:52:14;;;;;;;7.37;4.45;;;;;;;17.23;27.90;99287.28;4379703;32;35259;-74
2022/04/19 08:57:35;;;;;;;11.95;7.07;;;;;;;17.04;29.26;99285.97;4393222;32;33312;-74
2022/04/19 09:00:07;;;;;;;14.35;7.70;;;;;;;17.16;29.45;99283.87;4380727;32;34599;-75
2022/04/19 09:02:40;;;;;;;7.80;4.68;;;;;;;16.99;28.41;99277.59;4372058;32;32848;-74
2022/04/19 09:05:21;;;;;;;7.72;4.80;;;;;;;17.12;27.88;99269.69;4380170;32;34335;-74
2022/04/19 09:07:55;;;;;;;7.82;4.28;;;;;;;17.14;27.42;99274.97;4367416;32;31876;-74
2022/04/19 09:10:30;;;;;;;8.50;3.92;;;;;;;17.11;27.76;99275.50;4377752;32;32474;-74
2022/04/19 09:13:01;;;;;;;8.40;4.50;;;;;;;17.13;28.45;99276.06;4389374;32;35419;-75
2022/04/19 09:15:50;;;;;;;8.43;4.50;;;;;;;17.04;28.67;99280.41;4376916;32;33839;-75
2022/04/19 09:18:31;;;;;;;8.70;4.80;;;;;;;17.38;27.85;99278.28;4378084;32;33495;-74
2022/04/19 09:21:02;;;;;;;7.30;4.28;;;;;;;17.08;28.56;99270.47;4388797;32;32295;-75
2022/04/19 09:23:31;;;;;;;8.20;4.30;;;;;;;16.97;27.80;99272.31;4381955;32;34541;-75
2022/04/19 09:26:05;;;;;;;8.48;4.78;;;;;;;16.30;27.50;99277.28;4398969;32;33515;-75
2022/04/19 09:28:34;;;;;;;10.52;4.07;;;;;;;16.51;27.55;99275.63;4396526;32;33400;-75
2022/04/19 09:31:09;;;;;;;7.72;4.20;;;;;;;16.50;27.64;99266.47;4391059;32;33676;-74
2022/04/19 09:33:37;;;;;;;6.82;4.28;;;;;;;16.92;26.26;99271.41;4392985;32;33024;-74
2022/04/19 09:36:05;;;;;;;8.45;4.18;;;;;;;17.38;26.97;99265.22;4381028;32;34273;-75
2022/04/19 09:38:38;;;;;;;6.87;3.92;;;;;;;17.48;26.22;99263.66;4391010;32;33380;-75
2022/04/19 09:41:14;;;;;;;7.30;4.70;;;;;;;17.77;25.99;99257.53;4383147;32;33647;-75
2022/04/19 09:44:11;;;;;;;6.60;4.12;;;;;;;18.01;26.06;99255.19;4393185;32;34062;-74
2022/04/19 09:46:41;;;;;;;9.15;4.57;;;;;;;17.89;25.29;99257.31;4377838;32;34850;-75
2022/04/19 09:49:09;;;;;;;10.50;6.37;;;;;;;17.76;25.79;99252.22;4388405;32;33292;-74
2022/04/19 09:51:37;;;;;;;10.50;6.18;;;;;;;17.69;26.23;99254.41;4388771;32;33758;-75
2022/04/19 09:54:06;;;;;;;11.40;7.60;;;;;;;17.00;26.63;99254.31;4376355;32;34436;-75
2022/04/19 09:56:39;;;;;;;8.63;4.80;;;;;;;17.02;26.18;99258.50;4382588;32;34509;-75
2022/04/19 09:59:16;;;;;;;10.63;6.35;;;;;;;16.69;26.38;99255.94;4395443;32;34126;-75
2022/04/19 10:08:11;;;;;;;13.20;6.47;;;;;;;16.49;28.32;99253.72;4377996;32;32490;-75
2022/04/19 10:10:13;;;;;;;19.70;6.50;;;;;;;16.04;29.24;99263.09;4373188;32;33395;-75
2022/04/19 10:12:43;;;;;;;11.45;5.62;;;;;;;16.21;28.92;99256.69;4378649;32;34098;-75
2022/04/19 10:15:17;;;;;;;6.93;4.55;;;;;;;16.34;28.94;99253.53;4366386;32;34342;-74
2022/04/19 10:17:48;;;;;;;6.85;4.70;;;;;;;16.54;27.63;99262.09;4366204;32;34811;-74
2022/04/19 10:20:31;;;;;;;7.37;4.80;;;;;;;16.99;27.22;99256.25;4353847;32;33029;-74
2022/04/19 10:23:09;;;;;;;8.63;5.20;;;;;;;17.16;27.65;99258.91;4367989;32;33689;-74
2022/04/19 10:25:44;;;;;;;10.07;4.60;;;;;;;17.37;26.61;99244.13;4394340;32;34335;-75
2022/04/19 10:28:30;;;;;;;8.68;4.87;;;;;;;17.82;26.28;99236.44;4379328;32;34812;-75
2022/04/19 10:31:05;;;;;;;8.60;4.82;;;;;;;17.77;26.32;99234.47;4381120;32;33522;-75
2022/04/19 10:33:49;;;;;;;8.32;5.55;;;;;;;17.77;26.98;99229.75;4379452;32;33608;-75
2022/04/19 10:36:34;;;;;;;23.30;12.43;;;;;;;17.74;26.71;99218.34;4384377;32;34763;-75
2022/04/19 10:39:11;;;;;;;9.02;5.15;;;;;;;17.58;26.32;99222.91;4373907;32;34810;-74
2022/04/19 10:41:55;;;;;;;7.18;4.87;;;;;;;18.03;27.14;99230.75;4386899;32;33515;-75
2022/04/19 10:44:30;;;;;;;11.20;6.10;;;;;;;18.14;26.76;99228.88;4383120;32;33170;-75
2022/04/19 10:47:13;;;;;;;7.12;4.75;;;;;;;17.37;26.37;99218.34;4382796;32;35080;-75
2022/04/19 10:49:51;;;;;;;6.60;4.60;;;;;;;17.00;26.25;99238.50;4383051;32;34467;-75
2022/04/19 10:52:39;;;;;;;9.70;4.72;;;;;;;17.34;26.65;99233.56;4376969;32;34279;-75
2022/04/19 10:55:14;;;;;;;9.05;4.53;;;;;;;16.98;26.87;99237.94;4385267;32;33693;-75
2022/04/19 11:00:44;;;;;;;7.28;4.28;;;;;;;16.83;27.18;99231.44;4383819;32;34058;-74
2022/04/19 11:03:49;;;;;;;7.53;3.97;;;;;;;16.37;27.19;99240.00;4396478;32;34178;-74
2022/04/19 11:06:31;;;;;;;8.40;4.68;;;;;;;16.31;28.43;99242.97;4398027;32;34468;-74
2022/04/19 11:09:17;;;;;;;8.77;5.07;;;;;;;16.06;29.69;99246.25;4384497;32;34262;-75
2022/04/19 11:11:49;;;;;;;8.15;4.95;;;;;;;15.71;30.30;99243.78;4376015;32;33477;-74
2022/04/19 11:14:29;;;;;;;8.63;4.73;;;;;;;15.29;32.08;99243.38;4383694;32;31940;-74
2022/04/19 11:17:19;;;;;;;6.93;4.72;;;;;;;15.13;32.91;99245.03;4384344;32;33592;-75
2022/04/19 11:20:09;;;;;;;7.55;4.78;;;;;;;14.82;33.55;99243.66;4386609;32;35197;-74
2022/04/19 11:22:51;;;;;;;7.57;4.95;;;;;;;15.01;33.47;99249.78;4365767;32;34292;-74
2022/04/19 11:25:37;;;;;;;9.65;5.10;;;;;;;14.86;34.72;99255.03;4397218;32;34009;-74
2022/04/19 11:28:08;;;;;;;12.10;7.55;;;;;;;14.95;34.52;99253.56;4397608;32;32835;-74
2022/04/19 11:31:00;;;;;;;30.17;17.65;;;;;;;14.56;35.15;99258.03;4402408;32;32925;-73
2022/04/19 11:33:33;;;;;;;19.67;11.52;;;;;;;14.46;36.63;99269.72;4379681;32;34822;-73
2022/04/19 11:36:14;;;;;;;16.83;9.48;;;;;;;14.55;36.74;99271.00;4385560;32;34080;-73
2022/04/19 11:38:47;;;;;;;37.30;20.30;;;;;;;13.94;37.38;99280.69;4397531;32;34514;-73
2022/04/19 11:46:52;;;;;;;;;;;;;;;12.25;44.10;99309.56;4377700;32;33963;-73
2022/04/19 11:49:20;;;;;;;10.65;7.57;;;;;;;11.80;45.28;99296.03;4377039;32;34797;-73
2022/04/19 11:51:54;;;;;;;11.60;7.10;;;;;;;12.57;44.15;99295.59;4382237;32;34334;-73
2022/04/19 11:54:24;;;;;;;9.95;6.78;;;;;;;12.15;46.14;99288.06;4392741;32;33878;-73
2022/04/19 11:56:55;;;;;;;9.40;6.45;;;;;;;11.54;48.18;99299.87;4392622;32;34229;-73
2022/04/19 11:59:36;;;;;;;10.52;7.07;;;;;;;11.66;47.53;99301.91;4399118;32;32207;-73
2022/04/19 12:02:12;;;;;;;10.50;6.43;;;;;;;11.42;48.22;99315.41;4391299;32;34377;-73
2022/04/19 12:04:56;;;;;;;9.18;6.60;;;;;;;10.94;49.18;99315.13;4379335;32;34039;-73
2022/04/19 12:07:32;;;;;;;10.32;6.80;;;;;;;11.45;48.67;99312.22;4398147;32;32679;-73
2022/04/19 12:10:06;;;;;;;9.23;6.18;;;;;;;11.19;49.51;99320.66;4385068;32;33876;-73
2022/04/19 12:12:33;;;;;;;9.00;5.97;;;;;;;11.09;49.54;99312.06;4390614;32;34411;-73
2022/04/19 12:15:07;;;;;;;12.23;5.95;;;;;;;11.26;47.46;99315.94;4383677;32;34277;-73
2022/04/19 12:17:43;;;;;;;10.05;7.00;;;;;;;11.09;47.29;99312.06;4384496;32;34034;-72
2022/04/19 12:20:11;;;;;;;9.38;6.78;;;;;;;11.09;48.64;99312.06;4386973;32;33507;-72
2022/04/19 12:22:47;;;;;;;10.65;7.05;;;;;;;11.12;48.79;99311.59;4392486;32;34319;-73
2022/04/19 12:25:26;;;;;;;36.00;21.75;;;;;;;11.13;49.05;99316.03;4392375;32;32295;-73
2022/04/19 12:28:02;;;;;;;17.55;12.02;;;;;;;11.31;49.21;99316.13;4380175;32;33287;-73
2022/04/19 12:30:30;;;;;;;10.98;7.32;;;;;;;11.38;49.23;99308.69;4404124;32;33633;-73
2022/04/19 12:33:08;;;;;;;12.77;7.78;;;;;;;11.50;49.75;99317.88;4402005;32;33982;-73
2022/04/19 12:35:37;;;;;;;10.25;7.12;;;;;;;11.79;48.91;99315.53;4404862;32;32982;-73